createdAt,value
2017-08-22T00:00:26.669Z,4.87
2017-08-22T00:02:54.920Z,4.87
2017-08-22T00:05:23.150Z,5.97
2017-08-22T00:07:52.497Z,4.80
2017-08-22T00:10:20.742Z,5.33
2017-08-22T00:12:48.982Z,4.70
2017-08-22T00:15:17.382Z,5.30
2017-08-22T00:17:45.618Z,5.33
2017-08-22T00:20:14.050Z,5.10
2017-08-22T00:22:42.566Z,5.03
2017-08-22T00:25:10.815Z,5.17
2017-08-22T00:27:39.206Z,5.40
2017-08-22T00:30:07.466Z,4.70
2017-08-22T00:32:35.879Z,4.80
2017-08-22T00:35:04.234Z,5.00
2017-08-22T00:37:32.481Z,5.10
2017-08-22T00:40:00.725Z,4.90
2017-08-22T00:42:28.966Z,4.90
2017-08-22T00:44:57.925Z,5.30
2017-08-22T00:47:26.178Z,5.87
2017-08-22T00:49:54.427Z,4.80
2017-08-22T00:52:22.694Z,4.67
2017-08-22T00:54:50.930Z,5.50
2017-08-22T00:57:19.170Z,4.80
2017-08-22T00:59:47.442Z,5.80
2017-08-22T01:02:15.686Z,4.80
2017-08-22T01:04:43.925Z,4.80
2017-08-22T01:07:12.705Z,4.83
2017-08-22T01:09:40.950Z,5.80
2017-08-22T01:12:09.186Z,5.20
2017-08-22T01:14:37.455Z,5.20
2017-08-22T01:17:05.695Z,4.70
2017-08-22T01:19:33.921Z,4.57
2017-08-22T01:22:02.339Z,5.20
2017-08-22T01:24:30.581Z,5.10
2017-08-22T01:26:58.822Z,5.10
2017-08-22T01:29:27.386Z,5.60
2017-08-22T01:31:55.622Z,5.23
2017-08-22T01:34:24.229Z,4.77
2017-08-22T01:36:52.500Z,4.90
2017-08-22T01:39:20.734Z,5.40
2017-08-22T01:41:48.970Z,5.47
2017-08-22T01:44:17.746Z,4.90
2017-08-22T01:46:45.983Z,5.20
2017-08-22T01:49:14.232Z,4.80
2017-08-22T01:51:43.238Z,5.10
2017-08-22T01:54:11.481Z,4.80
2017-08-22T01:56:39.718Z,5.47
2017-08-22T01:59:07.985Z,5.33
2017-08-22T02:01:36.221Z,5.40
2017-08-22T02:04:04.467Z,5.40
2017-08-22T02:06:34.694Z,5.73
2017-08-22T02:09:02.938Z,6.00
2017-08-22T02:11:31.178Z,5.80
2017-08-22T02:13:59.883Z,5.73
2017-08-22T02:16:28.142Z,5.67
2017-08-22T02:18:56.386Z,6.90
2017-08-22T02:21:24.662Z,5.50
2017-08-22T02:23:52.903Z,6.20
2017-08-22T02:26:21.146Z,5.33
2017-08-22T02:28:49.518Z,5.87
2017-08-22T02:31:17.754Z,5.83
2017-08-22T02:33:45.989Z,5.97
2017-08-22T02:36:14.902Z,6.00
2017-08-22T02:38:43.282Z,5.60
2017-08-22T02:41:11.528Z,5.03
2017-08-22T02:43:39.782Z,5.57
2017-08-22T02:46:08.026Z,6.20
2017-08-22T02:48:36.271Z,5.40
2017-08-22T02:51:04.537Z,4.97
2017-08-22T02:53:32.777Z,5.40
2017-08-22T02:56:01.012Z,4.93
2017-08-22T02:58:29.329Z,5.20
2017-08-22T03:00:57.575Z,5.33
2017-08-22T03:03:25.814Z,4.70
2017-08-22T03:05:54.734Z,5.03
2017-08-22T03:08:22.982Z,5.37
2017-08-22T03:10:51.246Z,5.50
2017-08-22T03:13:19.693Z,6.40
2017-08-22T03:15:47.930Z,5.60
2017-08-22T03:18:16.170Z,6.10
2017-08-22T03:20:44.727Z,6.20
2017-08-22T03:23:13.198Z,6.27
2017-08-22T03:25:41.434Z,5.37
2017-08-22T03:28:09.693Z,6.57
2017-08-22T03:30:37.943Z,6.10
2017-08-22T03:33:06.186Z,5.40
2017-08-22T03:35:34.490Z,6.23
2017-08-22T03:38:03.095Z,6.27
2017-08-22T03:40:31.334Z,6.03
2017-08-22T03:42:59.991Z,6.30
2017-08-22T03:45:28.233Z,6.13
2017-08-22T03:47:56.473Z,6.67
2017-08-22T03:50:24.742Z,6.97
2017-08-22T03:52:52.980Z,5.90
2017-08-22T03:55:21.230Z,6.33
2017-08-22T03:57:49.521Z,6.83
2017-08-22T04:00:17.958Z,7.00
2017-08-22T04:02:46.206Z,6.80
2017-08-22T04:05:14.978Z,6.33
2017-08-22T04:07:43.221Z,6.63
2017-08-22T04:10:11.463Z,6.73
2017-08-22T04:12:39.732Z,6.50
2017-08-22T04:15:07.984Z,6.50
2017-08-22T04:17:36.226Z,6.20
2017-08-22T04:20:04.490Z,7.10
2017-08-22T04:22:32.730Z,6.40
2017-08-22T04:25:00.973Z,6.47
2017-08-22T04:27:30.015Z,6.90
2017-08-22T04:29:58.242Z,6.53
2017-08-22T04:32:26.485Z,7.30
2017-08-22T04:34:54.758Z,8.43
2017-08-22T04:37:22.998Z,6.30
2017-08-22T04:39:51.502Z,7.67
2017-08-22T04:42:19.773Z,6.90
2017-08-22T04:44:48.010Z,7.53
2017-08-22T04:47:16.253Z,7.33
2017-08-22T04:49:44.918Z,7.00
2017-08-22T04:52:13.162Z,7.30
2017-08-22T04:54:41.406Z,8.23
2017-08-22T04:57:09.674Z,9.47
2017-08-22T04:59:37.922Z,9.20
2017-08-22T05:02:06.171Z,8.80
2017-08-22T05:04:34.446Z,8.63
2017-08-22T05:07:02.853Z,9.13
2017-08-22T05:09:31.078Z,9.23
2017-08-22T05:11:59.569Z,9.57
2017-08-22T05:14:27.810Z,7.20
2017-08-22T05:16:56.060Z,7.57
2017-08-22T05:19:24.325Z,7.37
2017-08-22T05:21:52.575Z,7.33
2017-08-22T05:24:20.826Z,7.20
2017-08-22T05:26:49.094Z,6.60
2017-08-22T05:29:17.342Z,8.60
2017-08-22T05:31:45.586Z,7.77
2017-08-22T05:34:14.285Z,8.80
2017-08-22T05:36:42.530Z,8.80
2017-08-22T05:39:10.778Z,10.20
2017-08-22T05:41:39.407Z,12.10
2017-08-22T05:44:07.856Z,10.50
2017-08-22T05:46:36.110Z,10.97
2017-08-22T05:49:04.378Z,10.33
2017-08-22T05:51:32.622Z,9.13
2017-08-22T05:54:00.866Z,8.70
2017-08-22T05:56:29.699Z,9.10
2017-08-22T05:58:57.944Z,6.80
2017-08-22T06:01:26.371Z,7.50
2017-08-22T06:03:55.142Z,6.97
2017-08-22T06:06:23.393Z,8.80
2017-08-22T06:08:51.646Z,9.10
2017-08-22T06:11:19.930Z,9.70
2017-08-22T06:13:48.186Z,10.30
2017-08-22T06:16:16.430Z,9.50
2017-08-22T06:18:44.862Z,9.80
2017-08-22T06:21:13.109Z,9.57
2017-08-22T06:23:41.358Z,9.40
2017-08-22T06:26:09.691Z,9.97
2017-08-22T06:28:38.858Z,10.87
2017-08-22T06:31:07.110Z,10.10
2017-08-22T06:33:35.386Z,9.50
2017-08-22T06:36:03.638Z,9.13
2017-08-22T06:38:31.890Z,12.37
2017-08-22T06:41:00.528Z,10.67
2017-08-22T06:43:29.174Z,11.10
2017-08-22T06:45:57.435Z,11.87
2017-08-22T06:48:25.698Z,10.90
2017-08-22T06:50:54.159Z,10.40
2017-08-22T06:53:23.574Z,11.63
2017-08-22T06:55:51.855Z,10.63
2017-08-22T06:58:20.094Z,9.97
2017-08-22T07:00:48.337Z,11.40
2017-08-22T07:03:16.854Z,10.87
2017-08-22T07:05:45.159Z,10.50
2017-08-22T07:08:13.410Z,11.43
2017-08-22T07:10:41.690Z,11.57
2017-08-22T07:13:12.134Z,10.87
2017-08-22T07:15:40.404Z,9.80
2017-08-22T07:18:08.675Z,10.30
2017-08-22T07:20:36.926Z,10.43
2017-08-22T07:23:05.178Z,10.97
2017-08-22T07:25:35.034Z,10.10
2017-08-22T07:28:03.286Z,10.23
2017-08-22T07:30:31.542Z,10.07
2017-08-22T07:32:59.814Z,9.60
2017-08-22T07:35:28.335Z,10.17
2017-08-22T07:37:56.595Z,10.93
2017-08-22T07:40:27.340Z,9.87
2017-08-22T07:42:55.633Z,10.03
2017-08-22T07:45:24.482Z,10.30
2017-08-22T07:47:52.905Z,10.70
2017-08-22T07:50:21.146Z,8.37
2017-08-22T07:52:49.389Z,10.33
2017-08-22T07:55:17.658Z,9.13
2017-08-22T07:57:45.902Z,10.03
2017-08-22T08:00:14.146Z,9.57
2017-08-22T08:02:42.509Z,10.40
2017-08-22T08:05:10.758Z,9.30
2017-08-22T08:07:38.998Z,9.03
2017-08-22T08:10:07.626Z,9.00
2017-08-22T08:12:35.869Z,8.17
2017-08-22T08:15:04.374Z,9.57
2017-08-22T08:17:33.882Z,8.57
2017-08-22T08:20:02.156Z,8.93
2017-08-22T08:22:30.398Z,25.13
2017-08-22T08:24:58.678Z,9.70
2017-08-22T08:27:26.966Z,8.93
2017-08-22T08:29:55.190Z,8.70
2017-08-22T08:32:23.882Z,8.40
2017-08-22T08:34:52.122Z,8.57
2017-08-22T08:37:20.421Z,10.70
2017-08-22T08:39:48.686Z,8.00
2017-08-22T08:42:16.934Z,8.10
2017-08-22T08:44:45.194Z,8.60
2017-08-22T08:47:13.985Z,9.23
2017-08-22T08:49:42.234Z,8.50
2017-08-22T08:52:10.478Z,9.07
2017-08-22T08:54:39.098Z,8.70
2017-08-22T08:57:07.342Z,8.43
2017-08-22T08:59:35.591Z,8.10
2017-08-22T09:02:04.707Z,7.20
2017-08-22T09:04:32.947Z,6.80
2017-08-22T09:07:01.270Z,6.53
2017-08-22T09:09:29.821Z,7.27
2017-08-22T09:11:58.063Z,7.27
2017-08-22T09:14:26.305Z,6.90
2017-08-22T09:16:55.185Z,7.47
2017-08-22T09:19:23.426Z,7.13
2017-08-22T09:21:51.675Z,8.03
2017-08-22T09:24:19.958Z,8.50
2017-08-22T09:26:48.198Z,7.30
2017-08-22T09:29:16.443Z,7.93
2017-08-22T09:31:44.741Z,7.80
2017-08-22T09:34:12.962Z,7.00
2017-08-22T09:36:41.201Z,5.63
2017-08-22T09:39:09.650Z,7.00
2017-08-22T09:41:39.622Z,6.97
2017-08-22T09:44:07.935Z,6.77
2017-08-22T09:46:36.207Z,8.00
2017-08-22T09:49:04.962Z,6.43
2017-08-22T09:51:33.205Z,7.20
2017-08-22T09:54:01.458Z,6.20
2017-08-22T09:56:29.702Z,6.33
2017-08-22T09:58:57.945Z,6.07
2017-08-22T10:01:26.298Z,6.70
2017-08-22T10:03:54.602Z,6.33
2017-08-22T10:06:22.842Z,4.73
2017-08-22T10:08:51.109Z,5.63
2017-08-22T10:11:19.362Z,5.73
2017-08-22T10:13:47.726Z,4.73
2017-08-22T10:16:16.077Z,5.30
2017-08-22T10:18:44.298Z,5.27
2017-08-22T10:21:12.551Z,4.40
2017-08-22T10:23:41.023Z,5.30
2017-08-22T10:26:09.270Z,4.87
2017-08-22T10:28:38.686Z,4.07
2017-08-22T10:31:06.954Z,4.50
2017-08-22T10:33:35.203Z,4.50
2017-08-22T10:36:03.458Z,3.73
2017-08-22T10:38:31.754Z,5.00
2017-08-22T10:41:00.003Z,3.93
2017-08-22T10:43:28.246Z,4.20
2017-08-22T10:45:57.426Z,4.20
2017-08-22T10:48:25.671Z,3.63
2017-08-22T10:50:55.470Z,3.50
2017-08-22T10:53:23.925Z,3.70
2017-08-22T10:55:52.154Z,3.40
2017-08-22T10:58:21.391Z,4.03
2017-08-22T11:00:49.666Z,4.00
2017-08-22T11:03:17.899Z,3.63
2017-08-22T11:05:46.139Z,3.00
2017-08-22T11:08:15.108Z,3.60
2017-08-22T11:10:43.321Z,3.63
2017-08-22T11:13:11.570Z,3.40
2017-08-22T11:15:39.849Z,3.33
2017-08-22T11:18:08.111Z,3.17
2017-08-22T11:20:36.484Z,3.23
2017-08-22T11:23:04.760Z,2.73
2017-08-22T11:25:33.001Z,2.63
2017-08-22T11:28:01.370Z,2.77
2017-08-22T11:30:29.782Z,2.60
2017-08-22T11:32:58.519Z,2.23
2017-08-22T11:35:26.767Z,2.50
2017-08-22T11:37:55.174Z,2.00
2017-08-22T11:40:23.405Z,1.90
2017-08-22T11:42:51.638Z,2.27
2017-08-22T11:45:19.906Z,2.37
2017-08-22T11:47:48.150Z,2.40
2017-08-22T11:50:16.390Z,2.37
2017-08-22T11:52:46.131Z,2.37
2017-08-22T11:55:14.382Z,11.63
2017-08-22T11:57:42.626Z,2.73
2017-08-22T12:00:10.914Z,2.43
2017-08-22T12:02:40.154Z,2.37
2017-08-22T12:05:08.382Z,2.53
2017-08-22T12:07:36.690Z,2.37
2017-08-22T12:10:04.935Z,2.73
2017-08-22T12:12:33.178Z,3.27
2017-08-22T12:15:01.834Z,2.67
2017-08-22T12:17:30.184Z,2.70
2017-08-22T12:19:59.286Z,2.40
2017-08-22T12:22:27.988Z,2.33
2017-08-22T12:24:56.273Z,2.33
2017-08-22T12:27:24.581Z,2.13
2017-08-22T12:29:52.930Z,2.60
2017-08-22T12:32:21.155Z,2.27
2017-08-22T12:34:52.474Z,2.10
2017-08-22T12:37:21.082Z,2.50
2017-08-22T12:39:49.378Z,2.70
2017-08-22T12:42:17.622Z,2.97
2017-08-22T12:44:45.893Z,2.80
2017-08-22T12:47:14.122Z,2.73
2017-08-22T12:49:42.438Z,2.53
2017-08-22T12:52:10.703Z,2.00
2017-08-22T12:54:39.230Z,2.30
2017-08-22T12:57:08.257Z,2.30
2017-08-22T12:59:36.962Z,2.50
2017-08-22T13:02:05.202Z,2.70
2017-08-22T13:04:33.442Z,2.17
2017-08-22T13:07:01.862Z,2.00
2017-08-22T13:09:30.085Z,2.10
2017-08-22T13:11:58.318Z,1.57
2017-08-22T13:14:26.578Z,2.07
2017-08-22T13:16:54.860Z,2.07
2017-08-22T13:19:23.298Z,2.30
2017-08-22T13:21:52.058Z,2.67
2017-08-22T13:24:20.298Z,2.00
2017-08-22T13:26:48.542Z,2.60
2017-08-22T13:29:16.810Z,2.50
2017-08-22T13:31:45.073Z,2.20
2017-08-22T13:34:13.298Z,2.20
2017-08-22T13:36:41.570Z,2.00
2017-08-22T13:39:09.818Z,1.97
2017-08-22T13:41:38.053Z,2.10
2017-08-22T13:44:06.386Z,1.90
2017-08-22T13:46:34.630Z,1.87
2017-08-22T13:49:02.861Z,1.70
2017-08-22T13:51:31.125Z,2.07
2017-08-22T13:53:59.361Z,2.17
2017-08-22T13:56:27.786Z,2.37
2017-08-22T13:58:56.042Z,2.00
2017-08-22T14:01:24.287Z,2.20
2017-08-22T14:03:52.787Z,2.60
2017-08-22T14:06:21.346Z,2.47
2017-08-22T14:08:49.594Z,1.80
2017-08-22T14:11:17.829Z,2.13
2017-08-22T14:13:46.097Z,2.17
2017-08-22T14:16:14.335Z,2.50
2017-08-22T14:18:42.573Z,2.33
2017-08-22T14:21:10.838Z,1.97
2017-08-22T14:23:39.079Z,2.00
2017-08-22T14:26:07.584Z,2.20
2017-08-22T14:28:36.453Z,2.03
2017-08-22T14:31:04.694Z,2.10
2017-08-22T14:33:32.926Z,2.20
2017-08-22T14:36:01.202Z,2.10
2017-08-22T14:38:29.438Z,1.90
2017-08-22T14:40:57.666Z,1.90
2017-08-22T14:43:25.950Z,2.27
2017-08-22T14:45:54.194Z,1.80
2017-08-22T14:48:22.438Z,2.50
2017-08-22T14:50:50.750Z,1.60
2017-08-22T14:53:18.991Z,1.80
2017-08-22T14:55:47.227Z,1.70
2017-08-22T14:58:16.043Z,2.40
2017-08-22T15:00:44.311Z,2.27
2017-08-22T15:03:12.538Z,1.57
2017-08-22T15:05:40.830Z,2.10
2017-08-22T15:08:09.050Z,1.83
2017-08-22T15:10:37.290Z,1.67
2017-08-22T15:13:06.054Z,2.00
2017-08-22T15:15:34.294Z,1.80
2017-08-22T15:18:02.535Z,2.07
2017-08-22T15:20:30.848Z,2.30
2017-08-22T15:22:59.554Z,1.93
2017-08-22T15:25:27.778Z,2.23
2017-08-22T15:27:56.050Z,2.00
2017-08-22T15:30:24.295Z,1.93
2017-08-22T15:32:52.535Z,1.80
2017-08-22T15:35:21.158Z,1.90
2017-08-22T15:37:49.398Z,2.20
2017-08-22T15:40:17.870Z,2.00
2017-08-22T15:42:46.601Z,2.30
2017-08-22T15:45:14.838Z,1.80
2017-08-22T15:47:43.069Z,2.10
2017-08-22T15:50:11.334Z,2.87
2017-08-22T15:52:39.624Z,2.40
2017-08-22T15:55:07.853Z,2.23
2017-08-22T15:57:36.258Z,2.40
2017-08-22T16:00:04.965Z,2.17
2017-08-22T16:02:34.167Z,2.50
2017-08-22T16:05:02.434Z,2.07
2017-08-22T16:07:30.716Z,2.20
2017-08-22T16:09:58.933Z,2.63
2017-08-22T16:12:27.417Z,2.00
2017-08-22T16:14:55.639Z,2.37
2017-08-22T16:17:23.877Z,2.17
2017-08-22T16:19:52.589Z,2.00
2017-08-22T16:22:20.842Z,2.77
2017-08-22T16:24:49.086Z,2.33
2017-08-22T16:27:17.350Z,1.80
2017-08-22T16:29:46.655Z,1.93
2017-08-22T16:32:15.029Z,2.10
2017-08-22T16:34:43.422Z,2.80
2017-08-22T16:37:11.777Z,2.67
2017-08-22T16:39:41.082Z,1.90
2017-08-22T16:42:09.621Z,2.27
2017-08-22T16:44:37.864Z,2.10
2017-08-22T16:47:06.233Z,2.80
2017-08-22T16:50:15.225Z,2.50
2017-08-22T16:52:43.462Z,2.27
2017-08-22T16:55:11.705Z,2.00
2017-08-22T16:57:42.229Z,2.80
2017-08-22T17:00:10.921Z,1.93
2017-08-22T17:02:39.175Z,2.60
2017-08-22T17:05:07.439Z,2.37
2017-08-22T17:07:35.686Z,2.20
2017-08-22T17:10:04.708Z,2.03
2017-08-22T17:12:32.984Z,2.90
2017-08-22T17:15:01.394Z,2.23
2017-08-22T17:17:29.633Z,2.40
2017-08-22T17:19:58.389Z,2.43
2017-08-22T17:22:27.770Z,2.40
2017-08-22T17:24:56.023Z,2.27
2017-08-22T17:27:24.290Z,3.00
2017-08-22T17:29:52.650Z,2.13
2017-08-22T17:32:20.902Z,2.60
2017-08-22T17:34:49.392Z,2.30
2017-08-22T17:37:18.278Z,2.53
2017-08-22T17:39:46.519Z,2.67
2017-08-22T17:42:15.800Z,2.63
2017-08-22T17:44:44.097Z,2.67
2017-08-22T17:47:12.338Z,2.80
2017-08-22T17:49:40.633Z,2.70
2017-08-22T17:52:08.858Z,2.80
2017-08-22T17:54:37.097Z,2.23
2017-08-22T17:57:05.358Z,2.20
2017-08-22T17:59:34.602Z,2.90
2017-08-22T18:02:03.363Z,3.00
2017-08-22T18:04:31.829Z,2.13
2017-08-22T18:07:00.074Z,2.63
2017-08-22T18:09:28.314Z,2.43
2017-08-22T18:11:56.595Z,2.77
2017-08-22T18:14:24.958Z,2.70
2017-08-22T18:16:53.415Z,3.20
2017-08-22T18:19:21.731Z,3.10
2017-08-22T18:21:49.982Z,2.30
2017-08-22T18:24:18.228Z,2.77
2017-08-22T18:26:46.928Z,4.40
2017-08-22T18:29:15.163Z,2.47
2017-08-22T18:31:43.754Z,2.93
2017-08-22T18:34:12.027Z,2.60
2017-08-22T18:36:41.030Z,2.90
2017-08-22T18:39:09.270Z,3.33
2017-08-22T18:41:37.790Z,2.70
2017-08-22T18:44:06.062Z,2.67
2017-08-22T18:46:34.498Z,3.13
2017-08-22T18:49:03.259Z,2.97
2017-08-22T18:51:31.565Z,2.90
2017-08-22T18:53:59.939Z,3.07
2017-08-22T18:56:28.197Z,3.30
2017-08-22T18:58:56.451Z,2.53
2017-08-22T19:01:24.694Z,3.40
2017-08-22T19:03:52.962Z,3.50
2017-08-22T19:06:21.570Z,3.40
2017-08-22T19:08:49.814Z,3.53
2017-08-22T19:11:18.126Z,3.13
2017-08-22T19:13:46.386Z,3.60
2017-08-22T19:16:14.629Z,2.60
2017-08-22T19:18:42.894Z,3.70
2017-08-22T19:21:11.137Z,3.40
2017-08-22T19:23:39.379Z,3.50
2017-08-22T19:26:07.839Z,3.47
2017-08-22T19:28:36.067Z,3.47
2017-08-22T19:31:04.307Z,3.47
2017-08-22T19:33:32.858Z,3.47
2017-08-22T19:36:01.098Z,3.40
2017-08-22T19:38:29.340Z,3.03
2017-08-22T19:40:57.611Z,3.70
2017-08-22T19:43:25.862Z,4.10
2017-08-22T19:45:54.106Z,4.20
2017-08-22T19:48:22.370Z,3.63
2017-08-22T19:50:50.606Z,3.20
2017-08-22T19:53:18.845Z,4.07
2017-08-22T19:55:47.346Z,3.50
2017-08-22T19:58:15.642Z,3.40
2017-08-22T20:00:43.882Z,3.60
2017-08-22T20:03:12.145Z,3.33
2017-08-22T20:05:40.518Z,4.00
2017-08-22T20:08:09.522Z,3.50
2017-08-22T20:10:37.782Z,3.87
2017-08-22T20:13:06.023Z,3.73
2017-08-22T20:15:34.267Z,4.90
2017-08-22T20:18:02.763Z,4.27
2017-08-22T20:20:31.094Z,4.13
2017-08-22T20:23:00.114Z,4.87
2017-08-22T20:25:28.381Z,4.50
2017-08-22T20:27:56.624Z,4.30
2017-08-22T20:30:24.858Z,4.47
2017-08-22T20:32:53.121Z,5.03
2017-08-22T20:35:21.362Z,4.57
2017-08-22T20:37:49.604Z,4.63
2017-08-22T20:40:18.174Z,4.70
2017-08-22T20:42:46.487Z,5.30
2017-08-22T20:45:14.728Z,4.17
2017-08-22T20:47:42.990Z,4.57
2017-08-22T20:50:11.229Z,4.73
2017-08-22T20:52:39.477Z,5.43
2017-08-22T20:55:07.782Z,4.63
2017-08-22T20:57:36.798Z,5.00
2017-08-22T21:00:05.041Z,4.87
2017-08-22T21:02:34.201Z,4.87
2017-08-22T21:05:02.434Z,4.70
2017-08-22T21:07:31.210Z,4.23
2017-08-22T21:09:59.480Z,5.10
2017-08-22T21:12:27.718Z,5.37
2017-08-22T21:14:55.962Z,4.90
2017-08-22T21:17:24.227Z,5.00
2017-08-22T21:19:52.474Z,5.00
2017-08-22T21:22:20.734Z,5.73
2017-08-22T21:24:49.597Z,5.33
2017-08-22T21:27:17.842Z,5.37
2017-08-22T21:29:46.089Z,5.77
2017-08-22T21:32:14.354Z,5.40
2017-08-22T21:34:42.593Z,4.93
2017-08-22T21:37:10.838Z,4.80
2017-08-22T21:39:39.111Z,5.70
2017-08-22T21:42:07.361Z,6.03
2017-08-22T21:44:35.597Z,5.77
2017-08-22T21:47:04.090Z,5.10
2017-08-22T21:49:32.335Z,4.80
2017-08-22T21:52:00.574Z,6.10
2017-08-22T21:54:28.843Z,6.20
2017-08-22T21:56:57.069Z,5.70
2017-08-22T21:59:25.310Z,6.23
2017-08-22T22:01:53.574Z,6.07
2017-08-22T22:04:21.830Z,5.80
2017-08-22T22:06:50.059Z,5.87
2017-08-22T22:09:19.506Z,6.17
2017-08-22T22:11:48.731Z,6.30
2017-08-22T22:14:16.970Z,6.80
2017-08-22T22:16:45.234Z,6.03
2017-08-22T22:19:13.478Z,6.60
2017-08-22T22:21:41.729Z,6.50
2017-08-22T22:24:10.958Z,7.20
2017-08-22T22:26:39.206Z,6.20
2017-08-22T22:29:07.450Z,6.40
2017-08-22T22:31:35.862Z,5.10
2017-08-22T22:34:04.146Z,7.33
2017-08-22T22:36:32.394Z,5.93
2017-08-22T22:39:00.658Z,6.17
2017-08-22T22:41:28.907Z,6.40
2017-08-22T22:43:57.154Z,6.73
2017-08-22T22:46:25.427Z,5.50
2017-08-22T22:48:53.793Z,5.30
2017-08-22T22:51:22.033Z,6.20
2017-08-22T22:53:50.362Z,6.17
2017-08-22T22:56:18.601Z,6.10
2017-08-22T22:58:46.848Z,5.53
2017-08-22T23:01:15.113Z,6.13
2017-08-22T23:03:44.118Z,6.00
2017-08-22T23:06:13.130Z,5.13
2017-08-22T23:08:41.390Z,5.43
2017-08-22T23:11:10.162Z,5.40
2017-08-22T23:13:38.406Z,5.07
2017-08-22T23:16:06.970Z,5.90
2017-08-22T23:18:35.209Z,5.50
2017-08-22T23:21:03.450Z,5.60
2017-08-22T23:23:31.749Z,6.00
2017-08-22T23:25:59.993Z,5.67
2017-08-22T23:28:28.234Z,6.50
2017-08-22T23:30:56.507Z,5.90
2017-08-22T23:33:24.755Z,6.90
2017-08-22T23:35:52.998Z,6.50
2017-08-22T23:38:22.074Z,6.70
2017-08-22T23:40:50.310Z,6.10
2017-08-22T23:43:18.558Z,6.83
2017-08-22T23:45:46.817Z,7.00
2017-08-22T23:48:15.062Z,6.00
2017-08-22T23:50:43.311Z,6.73
2017-08-22T23:53:12.354Z,5.60
2017-08-22T23:55:40.650Z,6.83
2017-08-22T23:58:08.885Z,6.77
